sensor_id;sensor_type;location;lat;lon;timestamp;P1;durP1;ratioP1;P2;durP2;ratioP2
41141;SDS011;63666;52.284;20.890;2023-09-19T00:01:54;9.90;;;8.90;;
41141;SDS011;63666;52.284;20.890;2023-09-19T00:04:32;10.20;;;9.20;;
41141;SDS011;63666;52.284;20.890;2023-09-19T00:07:06;9.80;;;8.80;;
41141;SDS011;63666;52.284;20.890;2023-09-19T00:09:43;10.70;;;9.20;;
41141;SDS011;63666;52.284;20.890;2023-09-19T00:12:18;9.80;;;8.80;;
41141;SDS011;63666;52.284;20.890;2023-09-19T00:14:57;10.00;;;9.00;;
41141;SDS011;63666;52.284;20.890;2023-09-19T00:17:31;10.10;;;9.10;;
41141;SDS011;63666;52.284;20.890;2023-09-19T00:20:11;9.80;;;8.80;;
41141;SDS011;63666;52.284;20.890;2023-09-19T00:22:52;10.30;;;9.30;;
41141;SDS011;63666;52.284;20.890;2023-09-19T00:25:26;9.70;;;8.70;;
41141;SDS011;63666;52.284;20.890;2023-09-19T00:28:00;10.30;;;9.20;;
41141;SDS011;63666;52.284;20.890;2023-09-19T00:30:36;10.40;;;9.40;;
41141;SDS011;63666;52.284;20.890;2023-09-19T00:33:14;10.10;;;9.10;;
41141;SDS011;63666;52.284;20.890;2023-09-19T00:35:50;10.60;;;9.30;;
41141;SDS011;63666;52.284;20.890;2023-09-19T00:38:25;10.80;;;9.70;;
41141;SDS011;63666;52.284;20.890;2023-09-19T00:40:59;10.00;;;9.00;;
41141;SDS011;63666;52.284;20.890;2023-09-19T00:43:37;10.30;;;8.90;;
41141;SDS011;63666;52.284;20.890;2023-09-19T00:46:11;10.50;;;9.50;;
41141;SDS011;63666;52.284;20.890;2023-09-19T00:48:50;9.70;;;8.70;;
41141;SDS011;63666;52.284;20.890;2023-09-19T00:51:24;10.00;;;9.00;;
41141;SDS011;63666;52.284;20.890;2023-09-19T00:54:00;10.10;;;9.00;;
41141;SDS011;63666;52.284;20.890;2023-09-19T00:56:36;10.20;;;9.20;;
41141;SDS011;63666;52.284;20.890;2023-09-19T00:59:11;10.30;;;9.30;;
41141;SDS011;63666;52.284;20.890;2023-09-19T01:01:48;10.50;;;9.30;;
41141;SDS011;63666;52.284;20.890;2023-09-19T01:04:33;10.20;;;9.10;;
41141;SDS011;63666;52.284;20.890;2023-09-19T01:07:09;10.60;;;9.50;;
41141;SDS011;63666;52.284;20.890;2023-09-19T01:09:45;10.60;;;9.50;;
41141;SDS011;63666;52.284;20.890;2023-09-19T01:12:29;10.50;;;9.40;;
41141;SDS011;63666;52.284;20.890;2023-09-19T01:15:10;10.40;;;9.30;;
41141;SDS011;63666;52.284;20.890;2023-09-19T01:18:02;10.30;;;9.10;;
41141;SDS011;63666;52.284;20.890;2023-09-19T01:21:00;10.50;;;9.40;;
41141;SDS011;63666;52.284;20.890;2023-09-19T01:23:57;10.20;;;9.10;;
41141;SDS011;63666;52.284;20.890;2023-09-19T01:27:02;10.50;;;9.50;;
41141;SDS011;63666;52.284;20.890;2023-09-19T01:29:47;10.40;;;9.30;;
41141;SDS011;63666;52.284;20.890;2023-09-19T01:32:24;10.40;;;9.30;;
41141;SDS011;63666;52.284;20.890;2023-09-19T01:34:59;10.00;;;9.00;;
41141;SDS011;63666;52.284;20.890;2023-09-19T01:37:38;10.10;;;9.10;;
41141;SDS011;63666;52.284;20.890;2023-09-19T01:40:16;10.40;;;9.40;;
41141;SDS011;63666;52.284;20.890;2023-09-19T01:43:04;10.30;;;9.20;;
41141;SDS011;63666;52.284;20.890;2023-09-19T01:48:35;10.30;;;9.20;;
41141;SDS011;63666;52.284;20.890;2023-09-19T01:51:15;10.10;;;9.10;;
41141;SDS011;63666;52.284;20.890;2023-09-19T01:53:56;10.70;;;9.60;;
41141;SDS011;63666;52.284;20.890;2023-09-19T01:56:38;10.30;;;9.20;;
41141;SDS011;63666;52.284;20.890;2023-09-19T01:59:21;10.50;;;9.50;;
41141;SDS011;63666;52.284;20.890;2023-09-19T02:01:56;10.40;;;9.30;;
41141;SDS011;63666;52.284;20.890;2023-09-19T02:04:30;10.30;;;9.20;;
41141;SDS011;63666;52.284;20.890;2023-09-19T02:07:06;10.30;;;9.20;;
41141;SDS011;63666;52.284;20.890;2023-09-19T02:09:39;10.90;;;9.80;;
41141;SDS011;63666;52.284;20.890;2023-09-19T02:12:15;11.00;;;9.90;;
41141;SDS011;63666;52.284;20.890;2023-09-19T02:14:50;10.50;;;9.40;;
41141;SDS011;63666;52.284;20.890;2023-09-19T02:17:29;10.70;;;9.60;;
41141;SDS011;63666;52.284;20.890;2023-09-19T02:20:09;10.40;;;9.30;;
41141;SDS011;63666;52.284;20.890;2023-09-19T02:22:48;10.80;;;9.70;;
41141;SDS011;63666;52.284;20.890;2023-09-19T02:25:23;10.70;;;9.60;;
41141;SDS011;63666;52.284;20.890;2023-09-19T02:27:59;10.80;;;9.70;;
41141;SDS011;63666;52.284;20.890;2023-09-19T02:30:35;10.60;;;9.50;;
41141;SDS011;63666;52.284;20.890;2023-09-19T02:33:08;10.70;;;9.60;;
41141;SDS011;63666;52.284;20.890;2023-09-19T02:35:44;10.20;;;9.20;;
41141;SDS011;63666;52.284;20.890;2023-09-19T02:38:19;10.40;;;9.40;;
41141;SDS011;63666;52.284;20.890;2023-09-19T02:40:57;10.60;;;9.50;;
41141;SDS011;63666;52.284;20.890;2023-09-19T02:43:33;10.00;;;9.00;;
41141;SDS011;63666;52.284;20.890;2023-09-19T02:46:14;10.90;;;9.80;;
41141;SDS011;63666;52.284;20.890;2023-09-19T02:48:51;11.00;;;9.80;;
41141;SDS011;63666;52.284;20.890;2023-09-19T02:51:28;10.60;;;9.60;;
41141;SDS011;63666;52.284;20.890;2023-09-19T02:54:02;10.10;;;9.10;;
41141;SDS011;63666;52.284;20.890;2023-09-19T02:56:40;10.30;;;9.30;;
41141;SDS011;63666;52.284;20.890;2023-09-19T02:59:22;11.00;;;9.90;;
41141;SDS011;63666;52.284;20.890;2023-09-19T03:01:58;10.40;;;9.40;;
41141;SDS011;63666;52.284;20.890;2023-09-19T03:04:35;10.80;;;9.70;;
41141;SDS011;63666;52.284;20.890;2023-09-19T03:07:09;10.40;;;9.40;;
41141;SDS011;63666;52.284;20.890;2023-09-19T03:09:44;10.20;;;9.20;;
41141;SDS011;63666;52.284;20.890;2023-09-19T03:12:19;10.20;;;9.20;;
41141;SDS011;63666;52.284;20.890;2023-09-19T03:14:56;10.50;;;9.40;;
41141;SDS011;63666;52.284;20.890;2023-09-19T03:17:32;10.50;;;9.40;;
41141;SDS011;63666;52.284;20.890;2023-09-19T03:20:09;10.90;;;9.70;;
41141;SDS011;63666;52.284;20.890;2023-09-19T03:22:46;10.60;;;9.50;;
41141;SDS011;63666;52.284;20.890;2023-09-19T03:25:20;10.60;;;9.50;;
41141;SDS011;63666;52.284;20.890;2023-09-19T03:27:57;11.20;;;9.80;;
41141;SDS011;63666;52.284;20.890;2023-09-19T03:30:34;11.20;;;10.00;;
41141;SDS011;63666;52.284;20.890;2023-09-19T03:33:07;10.80;;;9.70;;
41141;SDS011;63666;52.284;20.890;2023-09-19T03:35:42;11.20;;;10.10;;
41141;SDS011;63666;52.284;20.890;2023-09-19T03:38:17;10.30;;;9.30;;
41141;SDS011;63666;52.284;20.890;2023-09-19T03:40:52;10.80;;;9.80;;
41141;SDS011;63666;52.284;20.890;2023-09-19T03:43:26;11.30;;;9.90;;
41141;SDS011;63666;52.284;20.890;2023-09-19T03:46:02;10.00;;;9.00;;
41141;SDS011;63666;52.284;20.890;2023-09-19T03:48:38;11.20;;;10.00;;
41141;SDS011;63666;52.284;20.890;2023-09-19T03:51:14;10.80;;;9.70;;
41141;SDS011;63666;52.284;20.890;2023-09-19T03:53:49;10.60;;;9.60;;
41141;SDS011;63666;52.284;20.890;2023-09-19T03:56:23;11.20;;;10.00;;
41141;SDS011;63666;52.284;20.890;2023-09-19T03:58:56;11.40;;;10.10;;
41141;SDS011;63666;52.284;20.890;2023-09-19T04:01:30;10.60;;;9.60;;
41141;SDS011;63666;52.284;20.890;2023-09-19T04:04:07;11.10;;;10.00;;
41141;SDS011;63666;52.284;20.890;2023-09-19T04:06:42;11.00;;;9.90;;
41141;SDS011;63666;52.284;20.890;2023-09-19T04:09:15;11.10;;;10.00;;
41141;SDS011;63666;52.284;20.890;2023-09-19T04:11:50;10.80;;;9.70;;
41141;SDS011;63666;52.284;20.890;2023-09-19T04:14:24;10.80;;;9.70;;
41141;SDS011;63666;52.284;20.890;2023-09-19T04:16:59;10.50;;;9.50;;
41141;SDS011;63666;52.284;20.890;2023-09-19T04:19:39;10.80;;;9.70;;
41141;SDS011;63666;52.284;20.890;2023-09-19T04:22:13;10.80;;;9.70;;
41141;SDS011;63666;52.284;20.890;2023-09-19T04:24:47;11.00;;;9.90;;
41141;SDS011;63666;52.284;20.890;2023-09-19T04:27:24;11.10;;;10.00;;
41141;SDS011;63666;52.284;20.890;2023-09-19T04:30:00;10.30;;;9.20;;
41141;SDS011;63666;52.284;20.890;2023-09-19T04:32:41;10.50;;;9.40;;
41141;SDS011;63666;52.284;20.890;2023-09-19T04:35:16;10.80;;;9.70;;
41141;SDS011;63666;52.284;20.890;2023-09-19T04:37:56;11.10;;;9.90;;
41141;SDS011;63666;52.284;20.890;2023-09-19T04:40:29;10.50;;;9.40;;
41141;SDS011;63666;52.284;20.890;2023-09-19T04:43:05;10.70;;;9.70;;
41141;SDS011;63666;52.284;20.890;2023-09-19T04:45:41;10.60;;;9.50;;
41141;SDS011;63666;52.284;20.890;2023-09-19T04:48:17;10.60;;;9.60;;
41141;SDS011;63666;52.284;20.890;2023-09-19T04:50:51;10.50;;;9.50;;
41141;SDS011;63666;52.284;20.890;2023-09-19T04:53:25;10.90;;;9.80;;
41141;SDS011;63666;52.284;20.890;2023-09-19T04:55:58;11.10;;;9.60;;
41141;SDS011;63666;52.284;20.890;2023-09-19T04:58:36;10.70;;;9.60;;
41141;SDS011;63666;52.284;20.890;2023-09-19T05:01:11;11.00;;;9.90;;
41141;SDS011;63666;52.284;20.890;2023-09-19T05:03:46;10.30;;;9.30;;
41141;SDS011;63666;52.284;20.890;2023-09-19T05:06:23;10.60;;;9.50;;
41141;SDS011;63666;52.284;20.890;2023-09-19T05:08:58;11.00;;;9.90;;
41141;SDS011;63666;52.284;20.890;2023-09-19T05:11:31;10.70;;;9.60;;
41141;SDS011;63666;52.284;20.890;2023-09-19T05:14:07;11.10;;;9.90;;
41141;SDS011;63666;52.284;20.890;2023-09-19T05:16:42;10.90;;;9.80;;
41141;SDS011;63666;52.284;20.890;2023-09-19T05:19:16;10.70;;;9.60;;
41141;SDS011;63666;52.284;20.890;2023-09-19T05:21:49;10.50;;;9.40;;
41141;SDS011;63666;52.284;20.890;2023-09-19T05:24:24;11.00;;;9.70;;
41141;SDS011;63666;52.284;20.890;2023-09-19T05:27:01;10.90;;;9.60;;
41141;SDS011;63666;52.284;20.890;2023-09-19T05:29:37;10.90;;;9.50;;
41141;SDS011;63666;52.284;20.890;2023-09-19T05:32:14;10.80;;;9.60;;
41141;SDS011;63666;52.284;20.890;2023-09-19T05:34:50;10.50;;;9.40;;
41141;SDS011;63666;52.284;20.890;2023-09-19T05:37:27;10.80;;;9.60;;
41141;SDS011;63666;52.284;20.890;2023-09-19T05:40:02;10.60;;;9.50;;
41141;SDS011;63666;52.284;20.890;2023-09-19T05:42:41;10.20;;;9.20;;
41141;SDS011;63666;52.284;20.890;2023-09-19T05:45:15;11.20;;;9.60;;
41141;SDS011;63666;52.284;20.890;2023-09-19T05:47:53;10.70;;;9.50;;
41141;SDS011;63666;52.284;20.890;2023-09-19T05:50:32;10.50;;;9.10;;
41141;SDS011;63666;52.284;20.890;2023-09-19T05:53:07;10.60;;;9.30;;
41141;SDS011;63666;52.284;20.890;2023-09-19T05:55:46;11.20;;;10.00;;
41141;SDS011;63666;52.284;20.890;2023-09-19T05:58:20;10.60;;;9.50;;
41141;SDS011;63666;52.284;20.890;2023-09-19T06:00:57;12.40;;;9.50;;
41141;SDS011;63666;52.284;20.890;2023-09-19T06:03:31;10.80;;;9.70;;
41141;SDS011;63666;52.284;20.890;2023-09-19T06:06:09;10.30;;;9.20;;
41141;SDS011;63666;52.284;20.890;2023-09-19T06:08:47;10.60;;;9.00;;
41141;SDS011;63666;52.284;20.890;2023-09-19T06:11:22;11.00;;;9.90;;
41141;SDS011;63666;52.284;20.890;2023-09-19T06:13:57;11.00;;;9.80;;
41141;SDS011;63666;52.284;20.890;2023-09-19T06:16:34;10.70;;;9.60;;
41141;SDS011;63666;52.284;20.890;2023-09-19T06:19:13;10.70;;;9.30;;
41141;SDS011;63666;52.284;20.890;2023-09-19T06:21:49;11.30;;;9.60;;
41141;SDS011;63666;52.284;20.890;2023-09-19T06:24:27;10.80;;;9.10;;
41141;SDS011;63666;52.284;20.890;2023-09-19T06:27:04;10.20;;;9.10;;
41141;SDS011;63666;52.284;20.890;2023-09-19T06:29:41;10.40;;;9.30;;
41141;SDS011;63666;52.284;20.890;2023-09-19T06:32:15;10.40;;;9.30;;
41141;SDS011;63666;52.284;20.890;2023-09-19T06:34:55;10.40;;;9.30;;
41141;SDS011;63666;52.284;20.890;2023-09-19T06:37:30;10.20;;;9.10;;
41141;SDS011;63666;52.284;20.890;2023-09-19T06:40:08;10.60;;;9.50;;
41141;SDS011;63666;52.284;20.890;2023-09-19T06:42:46;10.50;;;9.40;;
41141;SDS011;63666;52.284;20.890;2023-09-19T06:45:25;10.50;;;9.40;;
41141;SDS011;63666;52.284;20.890;2023-09-19T06:48:01;10.20;;;9.20;;
41141;SDS011;63666;52.284;20.890;2023-09-19T06:50:37;10.30;;;9.30;;
41141;SDS011;63666;52.284;20.890;2023-09-19T06:53:16;10.30;;;9.30;;
41141;SDS011;63666;52.284;20.890;2023-09-19T06:55:53;10.60;;;9.50;;
41141;SDS011;63666;52.284;20.890;2023-09-19T06:58:28;11.10;;;10.00;;
41141;SDS011;63666;52.284;20.890;2023-09-19T07:01:05;11.50;;;9.50;;
41141;SDS011;63666;52.284;20.890;2023-09-19T07:03:38;10.90;;;9.70;;
41141;SDS011;63666;52.284;20.890;2023-09-19T07:06:18;11.50;;;10.20;;
41141;SDS011;63666;52.284;20.890;2023-09-19T07:08:57;11.20;;;9.50;;
41141;SDS011;63666;52.284;20.890;2023-09-19T07:11:33;10.80;;;9.70;;
41141;SDS011;63666;52.284;20.890;2023-09-19T07:14:12;11.20;;;10.00;;
41141;SDS011;63666;52.284;20.890;2023-09-19T07:16:47;12.60;;;10.20;;
41141;SDS011;63666;52.284;20.890;2023-09-19T07:19:24;11.20;;;10.00;;
41141;SDS011;63666;52.284;20.890;2023-09-19T07:22:02;11.60;;;10.40;;
41141;SDS011;63666;52.284;20.890;2023-09-19T07:24:39;12.10;;;10.20;;
41141;SDS011;63666;52.284;20.890;2023-09-19T07:27:17;11.90;;;10.50;;
41141;SDS011;63666;52.284;20.890;2023-09-19T07:29:50;11.70;;;9.90;;
41141;SDS011;63666;52.284;20.890;2023-09-19T07:32:25;11.00;;;9.80;;
41141;SDS011;63666;52.284;20.890;2023-09-19T07:35:01;12.10;;;10.10;;
41141;SDS011;63666;52.284;20.890;2023-09-19T07:37:36;11.20;;;10.00;;
41141;SDS011;63666;52.284;20.890;2023-09-19T07:40:11;11.10;;;9.90;;
41141;SDS011;63666;52.284;20.890;2023-09-19T07:42:45;11.20;;;9.70;;
41141;SDS011;63666;52.284;20.890;2023-09-19T07:45:19;10.70;;;9.40;;
41141;SDS011;63666;52.284;20.890;2023-09-19T07:47:57;11.40;;;10.20;;
41141;SDS011;63666;52.284;20.890;2023-09-19T07:50:33;9.80;;;8.50;;
41141;SDS011;63666;52.284;20.890;2023-09-19T07:53:07;10.80;;;9.70;;
41141;SDS011;63666;52.284;20.890;2023-09-19T07:55:42;10.90;;;8.60;;
41141;SDS011;63666;52.284;20.890;2023-09-19T07:58:19;10.30;;;9.30;;
41141;SDS011;63666;52.284;20.890;2023-09-19T08:00:53;9.60;;;8.60;;
41141;SDS011;63666;52.284;20.890;2023-09-19T08:03:26;9.80;;;8.80;;
41141;SDS011;63666;52.284;20.890;2023-09-19T08:06:00;10.10;;;9.10;;
41141;SDS011;63666;52.284;20.890;2023-09-19T08:08:35;10.10;;;9.10;;
41141;SDS011;63666;52.284;20.890;2023-09-19T08:11:08;10.60;;;9.20;;
41141;SDS011;63666;52.284;20.890;2023-09-19T08:13:45;10.10;;;9.10;;
41141;SDS011;63666;52.284;20.890;2023-09-19T08:16:20;10.30;;;9.20;;
41141;SDS011;63666;52.284;20.890;2023-09-19T08:18:55;9.90;;;8.90;;
41141;SDS011;63666;52.284;20.890;2023-09-19T08:21:28;10.20;;;9.10;;
41141;SDS011;63666;52.284;20.890;2023-09-19T08:24:02;10.00;;;9.00;;
41141;SDS011;63666;52.284;20.890;2023-09-19T08:26:36;10.10;;;9.10;;
41141;SDS011;63666;52.284;20.890;2023-09-19T08:29:09;9.80;;;8.80;;
41141;SDS011;63666;52.284;20.890;2023-09-19T08:31:43;10.50;;;8.70;;
41141;SDS011;63666;52.284;20.890;2023-09-19T08:34:17;9.90;;;8.90;;
41141;SDS011;63666;52.284;20.890;2023-09-19T08:36:54;9.80;;;8.80;;
41141;SDS011;63666;52.284;20.890;2023-09-19T08:39:31;9.90;;;8.70;;
41141;SDS011;63666;52.284;20.890;2023-09-19T08:42:09;9.60;;;8.60;;
41141;SDS011;63666;52.284;20.890;2023-09-19T08:44:43;9.50;;;8.50;;
41141;SDS011;63666;52.284;20.890;2023-09-19T08:47:17;9.60;;;8.60;;
41141;SDS011;63666;52.284;20.890;2023-09-19T08:50:01;9.40;;;8.40;;
41141;SDS011;63666;52.284;20.890;2023-09-19T08:52:44;9.40;;;8.40;;
41141;SDS011;63666;52.284;20.890;2023-09-19T08:55:27;9.30;;;8.30;;
41141;SDS011;63666;52.284;20.890;2023-09-19T08:58:03;9.30;;;8.30;;
41141;SDS011;63666;52.284;20.890;2023-09-19T09:00:37;9.60;;;8.30;;
41141;SDS011;63666;52.284;20.890;2023-09-19T09:03:16;9.50;;;8.50;;
41141;SDS011;63666;52.284;20.890;2023-09-19T09:05:52;10.00;;;9.00;;
41141;SDS011;63666;52.284;20.890;2023-09-19T09:08:26;9.10;;;8.20;;
41141;SDS011;63666;52.284;20.890;2023-09-19T09:10:59;9.60;;;8.60;;
41141;SDS011;63666;52.284;20.890;2023-09-19T09:13:33;9.30;;;8.40;;
41141;SDS011;63666;52.284;20.890;2023-09-19T09:16:07;9.70;;;8.60;;
41141;SDS011;63666;52.284;20.890;2023-09-19T09:18:43;9.90;;;8.90;;
41141;SDS011;63666;52.284;20.890;2023-09-19T09:21:16;8.70;;;7.80;;
41141;SDS011;63666;52.284;20.890;2023-09-19T09:23:52;9.80;;;8.80;;
41141;SDS011;63666;52.284;20.890;2023-09-19T09:26:42;10.30;;;9.20;;
41141;SDS011;63666;52.284;20.890;2023-09-19T09:29:16;10.30;;;9.30;;
41141;SDS011;63666;52.284;20.890;2023-09-19T09:31:51;10.50;;;9.00;;
41141;SDS011;63666;52.284;20.890;2023-09-19T09:34:34;10.20;;;9.10;;
41141;SDS011;63666;52.284;20.890;2023-09-19T09:37:08;10.70;;;9.40;;
41141;SDS011;63666;52.284;20.890;2023-09-19T09:39:55;10.00;;;8.70;;
41141;SDS011;63666;52.284;20.890;2023-09-19T09:42:49;9.30;;;8.40;;
41141;SDS011;63666;52.284;20.890;2023-09-19T09:45:29;10.20;;;8.60;;
41141;SDS011;63666;52.284;20.890;2023-09-19T09:48:09;10.20;;;8.80;;
41141;SDS011;63666;52.284;20.890;2023-09-19T09:50:51;9.70;;;8.70;;
41141;SDS011;63666;52.284;20.890;2023-09-19T09:53:29;10.30;;;8.40;;
41141;SDS011;63666;52.284;20.890;2023-09-19T09:56:04;9.10;;;8.20;;
41141;SDS011;63666;52.284;20.890;2023-09-19T09:58:50;9.50;;;8.50;;
41141;SDS011;63666;52.284;20.890;2023-09-19T10:01:25;10.20;;;8.50;;
41141;SDS011;63666;52.284;20.890;2023-09-19T10:04:02;9.20;;;8.20;;
41141;SDS011;63666;52.284;20.890;2023-09-19T10:06:44;9.40;;;8.50;;
41141;SDS011;63666;52.284;20.890;2023-09-19T10:09:22;9.10;;;7.70;;
41141;SDS011;63666;52.284;20.890;2023-09-19T10:12:05;9.30;;;8.00;;
41141;SDS011;63666;52.284;20.890;2023-09-19T10:14:41;9.10;;;7.80;;
41141;SDS011;63666;52.284;20.890;2023-09-19T10:17:19;9.30;;;8.00;;
41141;SDS011;63666;52.284;20.890;2023-09-19T10:19:56;8.90;;;7.70;;
41141;SDS011;63666;52.284;20.890;2023-09-19T10:22:29;8.90;;;7.60;;
41141;SDS011;63666;52.284;20.890;2023-09-19T10:25:08;9.30;;;7.50;;
41141;SDS011;63666;52.284;20.890;2023-09-19T10:27:47;9.60;;;7.70;;
41141;SDS011;63666;52.284;20.890;2023-09-19T10:30:25;9.10;;;7.10;;
41141;SDS011;63666;52.284;20.890;2023-09-19T10:33:06;8.20;;;6.70;;
41141;SDS011;63666;52.284;20.890;2023-09-19T10:35:41;7.80;;;7.00;;
41141;SDS011;63666;52.284;20.890;2023-09-19T10:38:22;7.70;;;6.80;;
41141;SDS011;63666;52.284;20.890;2023-09-19T10:40:57;7.10;;;6.40;;
41141;SDS011;63666;52.284;20.890;2023-09-19T10:43:33;7.60;;;6.60;;
41141;SDS011;63666;52.284;20.890;2023-09-19T10:46:09;8.60;;;6.40;;
41141;SDS011;63666;52.284;20.890;2023-09-19T10:48:45;7.80;;;6.20;;
41141;SDS011;63666;52.284;20.890;2023-09-19T10:51:23;7.10;;;5.70;;
41141;SDS011;63666;52.284;20.890;2023-09-19T10:54:08;7.10;;;5.80;;
41141;SDS011;63666;52.284;20.890;2023-09-19T10:56:48;7.70;;;5.90;;
41141;SDS011;63666;52.284;20.890;2023-09-19T10:59:23;6.80;;;5.80;;
41141;SDS011;63666;52.284;20.890;2023-09-19T11:02:17;7.30;;;5.80;;
41141;SDS011;63666;52.284;20.890;2023-09-19T11:04:51;6.70;;;5.40;;
41141;SDS011;63666;52.284;20.890;2023-09-19T11:07:25;6.60;;;5.40;;
41141;SDS011;63666;52.284;20.890;2023-09-19T11:10:00;6.90;;;5.50;;
41141;SDS011;63666;52.284;20.890;2023-09-19T11:12:51;7.70;;;5.00;;
41141;SDS011;63666;52.284;20.890;2023-09-19T11:18:54;6.60;;;5.10;;
41141;SDS011;63666;52.284;20.890;2023-09-19T11:21:53;7.00;;;5.00;;
41141;SDS011;63666;52.284;20.890;2023-09-19T11:24:31;8.10;;;5.40;;
41141;SDS011;63666;52.284;20.890;2023-09-19T11:27:18;7.90;;;5.20;;
41141;SDS011;63666;52.284;20.890;2023-09-19T11:33:18;7.60;;;5.20;;
41141;SDS011;63666;52.284;20.890;2023-09-19T11:36:06;7.40;;;4.80;;
41141;SDS011;63666;52.284;20.890;2023-09-19T11:38:59;9.10;;;5.70;;
41141;SDS011;63666;52.284;20.890;2023-09-19T11:41:39;7.20;;;5.00;;
41141;SDS011;63666;52.284;20.890;2023-09-19T11:44:35;6.60;;;5.10;;
41141;SDS011;63666;52.284;20.890;2023-09-19T11:47:09;6.60;;;4.70;;
41141;SDS011;63666;52.284;20.890;2023-09-19T11:49:47;7.20;;;4.90;;
41141;SDS011;63666;52.284;20.890;2023-09-19T11:52:25;6.40;;;5.00;;
41141;SDS011;63666;52.284;20.890;2023-09-19T11:55:06;7.00;;;5.10;;
41141;SDS011;63666;52.284;20.890;2023-09-19T11:57:41;7.90;;;5.00;;
41141;SDS011;63666;52.284;20.890;2023-09-19T12:00:19;6.80;;;4.80;;
41141;SDS011;63666;52.284;20.890;2023-09-19T12:02:56;7.80;;;5.80;;
41141;SDS011;63666;52.284;20.890;2023-09-19T12:05:34;6.40;;;4.50;;
41141;SDS011;63666;52.284;20.890;2023-09-19T12:08:09;7.20;;;5.20;;
41141;SDS011;63666;52.284;20.890;2023-09-19T12:10:49;7.40;;;5.10;;
41141;SDS011;63666;52.284;20.890;2023-09-19T12:13:22;6.60;;;4.80;;
41141;SDS011;63666;52.284;20.890;2023-09-19T12:15:56;7.00;;;5.30;;
41141;SDS011;63666;52.284;20.890;2023-09-19T12:18:31;7.80;;;6.00;;
41141;SDS011;63666;52.284;20.890;2023-09-19T12:21:07;6.90;;;5.60;;
41141;SDS011;63666;52.284;20.890;2023-09-19T12:23:42;7.70;;;5.60;;
41141;SDS011;63666;52.284;20.890;2023-09-19T12:26:18;5.80;;;4.40;;
41141;SDS011;63666;52.284;20.890;2023-09-19T12:28:55;5.70;;;4.60;;
41141;SDS011;63666;52.284;20.890;2023-09-19T12:31:29;6.40;;;4.70;;
41141;SDS011;63666;52.284;20.890;2023-09-19T12:34:09;6.30;;;4.20;;
41141;SDS011;63666;52.284;20.890;2023-09-19T12:36:47;5.60;;;4.10;;
41141;SDS011;63666;52.284;20.890;2023-09-19T12:39:28;5.60;;;4.00;;
41141;SDS011;63666;52.284;20.890;2023-09-19T12:42:02;5.80;;;4.00;;
41141;SDS011;63666;52.284;20.890;2023-09-19T12:44:42;6.00;;;4.00;;
41141;SDS011;63666;52.284;20.890;2023-09-19T12:47:17;6.60;;;4.20;;
41141;SDS011;63666;52.284;20.890;2023-09-19T12:50:12;6.40;;;5.50;;
41141;SDS011;63666;52.284;20.890;2023-09-19T12:52:49;8.50;;;6.10;;
41141;SDS011;63666;52.284;20.890;2023-09-19T12:55:29;6.80;;;5.90;;
41141;SDS011;63666;52.284;20.890;2023-09-19T12:58:13;8.20;;;6.00;;
41141;SDS011;63666;52.284;20.890;2023-09-19T13:00:47;7.30;;;5.60;;
41141;SDS011;63666;52.284;20.890;2023-09-19T13:03:27;7.70;;;5.20;;
41141;SDS011;63666;52.284;20.890;2023-09-19T13:06:03;7.60;;;5.20;;
41141;SDS011;63666;52.284;20.890;2023-09-19T13:08:39;7.00;;;4.20;;
41141;SDS011;63666;52.284;20.890;2023-09-19T13:11:17;6.30;;;4.40;;
41141;SDS011;63666;52.284;20.890;2023-09-19T13:14:16;6.00;;;4.50;;
41141;SDS011;63666;52.284;20.890;2023-09-19T13:16:58;6.90;;;4.80;;
41141;SDS011;63666;52.284;20.890;2023-09-19T13:19:43;6.90;;;4.60;;
41141;SDS011;63666;52.284;20.890;2023-09-19T13:22:37;6.50;;;4.50;;
41141;SDS011;63666;52.284;20.890;2023-09-19T13:25:15;6.20;;;4.30;;
41141;SDS011;63666;52.284;20.890;2023-09-19T13:27:51;7.40;;;4.80;;
41141;SDS011;63666;52.284;20.890;2023-09-19T13:30:27;7.10;;;4.20;;
41141;SDS011;63666;52.284;20.890;2023-09-19T13:33:14;5.90;;;4.00;;
41141;SDS011;63666;52.284;20.890;2023-09-19T13:35:52;5.60;;;4.00;;
41141;SDS011;63666;52.284;20.890;2023-09-19T13:38:27;5.90;;;4.00;;
41141;SDS011;63666;52.284;20.890;2023-09-19T13:41:03;5.80;;;4.10;;
41141;SDS011;63666;52.284;20.890;2023-09-19T13:43:37;6.60;;;5.10;;
41141;SDS011;63666;52.284;20.890;2023-09-19T13:46:10;5.30;;;4.00;;
41141;SDS011;63666;52.284;20.890;2023-09-19T13:48:47;6.30;;;4.70;;
41141;SDS011;63666;52.284;20.890;2023-09-19T13:51:21;5.90;;;4.30;;
41141;SDS011;63666;52.284;20.890;2023-09-19T13:53:54;6.50;;;4.20;;
41141;SDS011;63666;52.284;20.890;2023-09-19T13:56:28;6.90;;;4.30;;
41141;SDS011;63666;52.284;20.890;2023-09-19T13:59:02;6.00;;;3.80;;
41141;SDS011;63666;52.284;20.890;2023-09-19T14:01:36;6.40;;;4.20;;
41141;SDS011;63666;52.284;20.890;2023-09-19T14:04:10;6.00;;;4.10;;
41141;SDS011;63666;52.284;20.890;2023-09-19T14:06:46;6.50;;;4.30;;
41141;SDS011;63666;52.284;20.890;2023-09-19T14:09:19;5.50;;;4.20;;
41141;SDS011;63666;52.284;20.890;2023-09-19T14:11:54;7.20;;;5.20;;
41141;SDS011;63666;52.284;20.890;2023-09-19T14:14:28;6.30;;;4.80;;
41141;SDS011;63666;52.284;20.890;2023-09-19T14:17:01;6.10;;;4.80;;
41141;SDS011;63666;52.284;20.890;2023-09-19T14:19:36;6.40;;;4.80;;
41141;SDS011;63666;52.284;20.890;2023-09-19T14:22:17;6.00;;;4.40;;
41141;SDS011;63666;52.284;20.890;2023-09-19T14:24:52;6.00;;;4.00;;
41141;SDS011;63666;52.284;20.890;2023-09-19T14:27:25;5.90;;;4.30;;
41141;SDS011;63666;52.284;20.890;2023-09-19T14:29:59;6.00;;;4.50;;
41141;SDS011;63666;52.284;20.890;2023-09-19T14:32:35;5.70;;;4.30;;
41141;SDS011;63666;52.284;20.890;2023-09-19T14:35:10;6.00;;;4.30;;
41141;SDS011;63666;52.284;20.890;2023-09-19T14:37:47;6.10;;;4.10;;
41141;SDS011;63666;52.284;20.890;2023-09-19T14:40:20;5.20;;;4.00;;
41141;SDS011;63666;52.284;20.890;2023-09-19T14:42:54;5.30;;;3.90;;
41141;SDS011;63666;52.284;20.890;2023-09-19T14:45:28;5.20;;;4.10;;
41141;SDS011;63666;52.284;20.890;2023-09-19T14:48:12;6.30;;;4.50;;
41141;SDS011;63666;52.284;20.890;2023-09-19T14:53:22;6.00;;;4.40;;
41141;SDS011;63666;52.284;20.890;2023-09-19T14:56:01;6.20;;;4.20;;
41141;SDS011;63666;52.284;20.890;2023-09-19T14:58:36;5.20;;;4.00;;
41141;SDS011;63666;52.284;20.890;2023-09-19T15:01:12;5.40;;;3.60;;
41141;SDS011;63666;52.284;20.890;2023-09-19T15:03:48;5.70;;;3.70;;
41141;SDS011;63666;52.284;20.890;2023-09-19T15:06:26;5.60;;;3.70;;
41141;SDS011;63666;52.284;20.890;2023-09-19T15:09:01;5.10;;;3.70;;
41141;SDS011;63666;52.284;20.890;2023-09-19T15:11:39;5.40;;;3.90;;
41141;SDS011;63666;52.284;20.890;2023-09-19T15:14:14;5.50;;;3.50;;
41141;SDS011;63666;52.284;20.890;2023-09-19T15:16:49;4.70;;;3.60;;
41141;SDS011;63666;52.284;20.890;2023-09-19T15:19:25;4.90;;;4.00;;
41141;SDS011;63666;52.284;20.890;2023-09-19T15:22:00;5.00;;;3.50;;
41141;SDS011;63666;52.284;20.890;2023-09-19T15:24:35;4.70;;;3.40;;
41141;SDS011;63666;52.284;20.890;2023-09-19T15:27:12;5.30;;;3.50;;
41141;SDS011;63666;52.284;20.890;2023-09-19T15:29:47;6.00;;;3.50;;
41141;SDS011;63666;52.284;20.890;2023-09-19T15:32:22;4.80;;;3.60;;
41141;SDS011;63666;52.284;20.890;2023-09-19T15:34:58;5.30;;;3.60;;
41141;SDS011;63666;52.284;20.890;2023-09-19T15:37:33;4.50;;;3.50;;